createdAt,value
2022-10-23T00:01:18.530Z,4.75
2022-10-23T00:03:47.515Z,5.55
2022-10-23T00:06:16.306Z,3.50
2022-10-23T00:08:44.766Z,4.22
2022-10-23T00:11:16.371Z,4.55
2022-10-23T00:13:44.626Z,2.67
2022-10-23T00:16:12.819Z,4.60
2022-10-23T00:18:42.730Z,4.85
2022-10-23T00:21:12.799Z,4.80
2022-10-23T00:23:41.595Z,1.85
2022-10-23T00:26:15.101Z,2.03
2022-10-23T00:28:43.814Z,2.70
2022-10-23T00:31:12.317Z,3.13
2022-10-23T00:33:42.436Z,4.68
2022-10-23T00:36:13.362Z,3.55
2022-10-23T00:38:41.871Z,5.20
2022-10-23T00:41:21.674Z,15.18
2022-10-23T00:44:06.485Z,22.83
2022-10-23T00:46:36.195Z,9.48
2022-10-23T00:49:06.751Z,5.15
2022-10-23T00:51:39.609Z,2.80
2022-10-23T00:54:25.410Z,3.28
2022-10-23T00:56:57.248Z,2.38
2022-10-23T00:59:25.940Z,3.60
2022-10-23T01:01:54.178Z,1.27
2022-10-23T01:04:24.212Z,3.10
2022-10-23T01:07:00.746Z,2.33
2022-10-23T01:09:33.559Z,2.67
2022-10-23T01:12:08.320Z,2.40
2022-10-23T01:14:44.091Z,4.80
2022-10-23T01:17:20.824Z,33.30
2022-10-23T01:20:11.823Z,22.25
2022-10-23T01:23:02.854Z,17.73
2022-10-23T01:25:47.400Z,6.68
2022-10-23T01:28:22.978Z,7.80
2022-10-23T01:30:51.394Z,10.38
2022-10-23T01:33:23.842Z,7.28
2022-10-23T01:35:57.806Z,5.70
2022-10-23T01:38:30.597Z,24.40
2022-10-23T01:41:03.292Z,9.07
2022-10-23T01:43:38.154Z,4.93
2022-10-23T01:46:11.550Z,7.53
2022-10-23T01:48:39.730Z,5.75
2022-10-23T01:51:10.890Z,3.03
2022-10-23T01:53:42.120Z,1.90
2022-10-23T01:56:13.407Z,3.17
2022-10-23T01:58:46.759Z,2.08
2022-10-23T02:01:16.775Z,3.38
2022-10-23T02:03:46.538Z,3.47
2022-10-23T02:06:14.908Z,4.53
2022-10-23T02:08:43.324Z,2.20
2022-10-23T02:11:14.245Z,2.50
2022-10-23T02:13:49.095Z,2.22
2022-10-23T02:16:24.231Z,1.60
2022-10-23T02:19:00.528Z,2.50
2022-10-23T02:21:35.275Z,3.65
2022-10-23T02:24:08.307Z,2.35
2022-10-23T02:26:41.494Z,5.45
2022-10-23T02:29:15.672Z,2.63
2022-10-23T02:31:43.838Z,2.47
2022-10-23T02:34:11.897Z,3.13
2022-10-23T02:36:40.131Z,5.25
2022-10-23T02:39:08.234Z,5.07
2022-10-23T02:41:43.413Z,4.43
2022-10-23T02:44:33.842Z,6.30
2022-10-23T02:47:11.390Z,4.78
2022-10-23T02:49:46.595Z,5.25
2022-10-23T02:52:19.448Z,4.47
2022-10-23T02:55:04.175Z,6.53
2022-10-23T02:57:36.582Z,15.05
2022-10-23T03:00:13.127Z,4.55
2022-10-23T03:02:45.243Z,6.30
2022-10-23T03:05:20.679Z,9.02
2022-10-23T03:07:49.239Z,3.35
2022-10-23T03:10:17.299Z,3.97
2022-10-23T03:12:47.071Z,2.72
2022-10-23T03:15:17.915Z,4.07
2022-10-23T03:17:45.992Z,2.53
2022-10-23T03:20:14.424Z,6.00
2022-10-23T03:22:42.700Z,2.40
2022-10-23T03:25:11.210Z,2.40
2022-10-23T03:27:39.264Z,1.67
2022-10-23T03:30:08.790Z,1.33
2022-10-23T03:32:38.219Z,1.23
2022-10-23T03:35:07.077Z,6.28
2022-10-23T03:37:35.331Z,1.00
2022-10-23T03:40:03.710Z,6.57
2022-10-23T03:42:31.745Z,1.65
2022-10-23T03:44:59.796Z,3.65
2022-10-23T03:47:27.881Z,1.02
2022-10-23T03:49:57.279Z,1.23
2022-10-23T03:54:58.266Z,3.08
2022-10-23T03:57:26.632Z,10.90
2022-10-23T03:59:55.151Z,3.67
2022-10-23T04:02:23.301Z,4.07
2022-10-23T04:04:51.354Z,2.47
2022-10-23T04:07:20.737Z,2.10
2022-10-23T04:09:48.784Z,2.47
2022-10-23T04:12:16.843Z,3.53
2022-10-23T04:14:44.905Z,3.25
2022-10-23T04:17:12.955Z,2.50
2022-10-23T04:19:40.992Z,4.80
2022-10-23T04:22:09.032Z,3.47
2022-10-23T04:24:38.515Z,2.55
2022-10-23T04:27:06.768Z,2.63
2022-10-23T04:29:34.826Z,4.70
2022-10-23T04:32:02.889Z,2.10
2022-10-23T04:34:30.927Z,5.57
2022-10-23T04:36:58.945Z,4.57
2022-10-23T04:39:27.124Z,5.90
2022-10-23T04:41:56.540Z,3.08
2022-10-23T04:44:24.639Z,2.72
2022-10-23T04:46:52.702Z,3.00
2022-10-23T04:49:20.731Z,4.43
2022-10-23T04:51:48.794Z,2.63
2022-10-23T04:54:16.902Z,1.52
2022-10-23T04:56:45.056Z,3.58
2022-10-23T04:59:14.569Z,3.20
2022-10-23T05:01:42.686Z,2.65
2022-10-23T05:04:10.851Z,2.92
2022-10-23T05:06:38.927Z,2.45
2022-10-23T05:09:06.972Z,1.90
2022-10-23T05:11:35.021Z,2.67
2022-10-23T05:14:03.067Z,3.78
2022-10-23T05:16:39.004Z,4.47
2022-10-23T05:19:11.811Z,5.32
2022-10-23T05:21:41.675Z,6.57
2022-10-23T05:24:11.428Z,4.45
2022-10-23T05:26:39.431Z,8.82
2022-10-23T05:29:07.459Z,9.52
2022-10-23T05:31:37.415Z,5.55
2022-10-23T05:34:06.838Z,10.90
2022-10-23T05:36:35.806Z,3.33
2022-10-23T05:39:04.026Z,4.45
2022-10-23T05:41:32.389Z,7.13
2022-10-23T05:44:00.406Z,6.22
2022-10-23T05:46:29.030Z,4.72
2022-10-23T05:51:27.374Z,4.30
2022-10-23T05:53:57.469Z,5.45
2022-10-23T05:56:25.539Z,3.40
2022-10-23T05:58:53.570Z,4.45
2022-10-23T06:01:23.089Z,5.50
2022-10-23T06:03:52.199Z,3.42
2022-10-23T06:06:21.637Z,7.13
2022-10-23T06:08:49.644Z,9.50
2022-10-23T06:11:17.736Z,12.15
2022-10-23T06:13:46.708Z,9.27
2022-10-23T06:16:16.705Z,9.35
2022-10-23T06:18:45.943Z,6.97
2022-10-23T06:21:15.078Z,5.85
2022-10-23T06:23:45.630Z,6.10
2022-10-23T06:26:15.498Z,3.50
2022-10-23T06:28:43.988Z,3.97
2022-10-23T06:31:15.018Z,11.70
2022-10-23T06:33:43.402Z,20.13
2022-10-23T06:36:11.604Z,9.90
2022-10-23T06:38:40.647Z,5.78
2022-10-23T06:41:15.247Z,4.35
2022-10-23T06:43:43.383Z,5.47
2022-10-23T06:46:11.775Z,7.90
2022-10-23T06:48:39.806Z,4.03
2022-10-23T06:51:09.229Z,10.48
2022-10-23T06:53:37.939Z,4.07
2022-10-23T06:56:07.639Z,2.80
2022-10-23T06:58:38.303Z,4.30
2022-10-23T07:01:08.936Z,3.17
2022-10-23T07:03:37.309Z,4.40
2022-10-23T07:06:07.603Z,4.45
2022-10-23T07:08:35.707Z,3.97
2022-10-23T07:11:05.456Z,6.57
2022-10-23T07:13:36.264Z,39.35
2022-10-23T07:16:11.968Z,23.52
2022-10-23T07:18:40.101Z,19.40
2022-10-23T07:21:08.304Z,12.13
2022-10-23T07:23:36.362Z,13.20
2022-10-23T07:26:06.314Z,8.18
2022-10-23T07:28:36.149Z,10.43
2022-10-23T07:31:04.727Z,8.30
2022-10-23T07:33:32.748Z,9.57
2022-10-23T07:36:01.016Z,8.27
2022-10-23T07:38:29.108Z,8.80
2022-10-23T07:40:59.243Z,7.40
2022-10-23T07:43:28.007Z,14.52
2022-10-23T07:45:57.624Z,9.77
2022-10-23T07:48:27.253Z,9.75
2022-10-23T07:50:55.737Z,6.63
2022-10-23T07:53:26.086Z,10.38
2022-10-23T07:55:55.053Z,7.80
2022-10-23T07:58:23.574Z,6.85
2022-10-23T08:00:58.615Z,6.50
2022-10-23T08:03:27.097Z,5.57
2022-10-23T08:05:55.571Z,5.20
2022-10-23T08:08:24.267Z,5.30
2022-10-23T08:10:53.479Z,4.88
2022-10-23T08:13:22.948Z,5.95
2022-10-23T08:15:52.643Z,3.45
2022-10-23T08:18:22.073Z,4.43
2022-10-23T08:20:52.375Z,7.88
2022-10-23T08:23:21.192Z,5.75
2022-10-23T08:25:49.270Z,3.63
2022-10-23T08:28:17.661Z,2.95
2022-10-23T08:30:45.691Z,4.95
2022-10-23T08:33:13.706Z,4.65
2022-10-23T08:35:43.094Z,3.17
2022-10-23T08:38:12.443Z,6.10
2022-10-23T08:40:45.927Z,6.03
2022-10-23T08:43:21.071Z,3.33
2022-10-23T08:45:52.350Z,5.95
2022-10-23T08:48:26.280Z,3.08
2022-10-23T08:50:59.347Z,4.07
2022-10-23T08:53:33.888Z,5.57
2022-10-23T08:56:05.536Z,2.47
2022-10-23T08:58:40.174Z,8.77
2022-10-23T09:01:31.925Z,2.65
2022-10-23T09:04:00.290Z,4.32
2022-10-23T09:06:37.946Z,3.85
2022-10-23T09:09:41.122Z,4.47
2022-10-23T09:12:12.735Z,3.78
2022-10-23T09:14:58.610Z,4.82
2022-10-23T09:17:28.762Z,4.05
2022-10-23T09:20:02.878Z,8.32
2022-10-23T09:22:32.357Z,3.47
2022-10-23T09:25:00.492Z,3.55
2022-10-23T09:27:28.567Z,4.32
2022-10-23T09:29:59.341Z,3.20
2022-10-23T09:32:38.923Z,2.90
2022-10-23T09:35:08.256Z,3.33
2022-10-23T09:37:48.486Z,4.63
2022-10-23T09:40:20.782Z,1.92
2022-10-23T09:42:58.059Z,3.85
2022-10-23T09:45:29.301Z,4.90
2022-10-23T09:48:15.049Z,3.78
2022-10-23T09:50:50.907Z,5.55
2022-10-23T09:53:27.402Z,4.75
2022-10-23T09:55:57.830Z,6.22
2022-10-23T09:58:33.071Z,5.65
2022-10-23T10:01:01.677Z,4.72
2022-10-23T10:03:29.750Z,2.22
2022-10-23T10:06:00.084Z,4.60
2022-10-23T10:08:37.444Z,3.30
2022-10-23T10:11:13.213Z,2.78
2022-10-23T10:14:02.403Z,2.42
2022-10-23T10:19:22.806Z,3.15
2022-10-23T10:21:55.352Z,3.47
2022-10-23T10:24:31.234Z,2.72
2022-10-23T10:27:05.034Z,3.28
2022-10-23T10:29:52.220Z,2.05
2022-10-23T10:32:36.182Z,2.42
2022-10-23T10:35:24.664Z,4.10
2022-10-23T10:38:06.756Z,5.07
2022-10-23T10:40:41.341Z,2.22
2022-10-23T10:43:22.331Z,7.63
2022-10-23T10:45:58.456Z,3.72
2022-10-23T10:48:41.916Z,2.05
2022-10-23T10:51:15.026Z,2.28
2022-10-23T10:53:53.206Z,2.40
2022-10-23T10:56:24.211Z,2.47
2022-10-23T10:58:56.323Z,5.20
2022-10-23T11:01:28.866Z,3.38
2022-10-23T11:04:02.849Z,1.88
2022-10-23T11:06:35.214Z,4.65
2022-10-23T11:09:20.134Z,2.40
2022-10-23T11:11:50.854Z,3.17
2022-10-23T11:14:20.827Z,2.50
2022-10-23T11:16:51.848Z,2.95
2022-10-23T11:19:24.416Z,4.33
2022-10-23T11:21:59.460Z,2.35
2022-10-23T11:24:53.395Z,2.75
2022-10-23T11:27:39.738Z,1.55
2022-10-23T11:30:23.963Z,3.30
2022-10-23T11:33:21.703Z,3.40
2022-10-23T11:35:58.437Z,2.78
2022-10-23T11:38:29.927Z,1.92
2022-10-23T11:41:02.099Z,1.48
2022-10-23T11:43:34.378Z,2.60
2022-10-23T11:46:14.183Z,1.40
2022-10-23T11:48:44.195Z,4.10
2022-10-23T11:51:30.740Z,2.03
2022-10-23T11:54:22.419Z,3.72
2022-10-23T11:56:56.039Z,2.97
2022-10-23T11:59:29.410Z,16.60
2022-10-23T12:01:59.424Z,2.30
2022-10-23T12:04:31.991Z,2.20
2022-10-23T12:07:05.372Z,2.78
2022-10-23T12:09:38.241Z,2.53
2022-10-23T12:12:17.129Z,2.38
2022-10-23T12:14:47.811Z,2.30
2022-10-23T12:17:35.727Z,2.97
2022-10-23T12:20:20.701Z,2.85
2022-10-23T12:22:59.559Z,3.78
2022-10-23T12:25:35.136Z,2.70
2022-10-23T12:28:09.787Z,2.35
2022-10-23T12:30:46.188Z,1.60
2022-10-23T12:33:25.790Z,2.47
2022-10-23T12:36:08.602Z,2.03
2022-10-23T12:38:45.284Z,1.85
2022-10-23T12:41:15.843Z,2.00
2022-10-23T12:43:46.619Z,2.97
2022-10-23T12:46:31.587Z,3.05
2022-10-23T12:49:00.964Z,3.83
2022-10-23T12:51:30.766Z,4.50
2022-10-23T12:53:59.092Z,3.10
2022-10-23T12:56:30.521Z,2.42
2022-10-23T12:59:01.694Z,1.83
2022-10-23T13:01:33.117Z,3.10
2022-10-23T13:04:14.579Z,1.98
2022-10-23T13:06:43.265Z,1.85
2022-10-23T13:09:24.078Z,1.90
2022-10-23T13:11:53.454Z,4.05
2022-10-23T13:14:34.426Z,1.20
2022-10-23T13:17:05.745Z,2.95
2022-10-23T13:19:34.541Z,8.45
2022-10-23T13:22:05.195Z,1.70
2022-10-23T13:24:33.585Z,5.30
2022-10-23T13:27:01.696Z,1.40
2022-10-23T13:29:32.487Z,4.88
2022-10-23T13:32:11.407Z,4.07
2022-10-23T13:34:39.473Z,2.50
2022-10-23T13:37:25.463Z,3.20
2022-10-23T13:40:03.470Z,3.25
2022-10-23T13:42:31.692Z,6.00
2022-10-23T13:44:59.734Z,3.28
2022-10-23T13:47:29.160Z,3.72
2022-10-23T13:49:57.177Z,1.95
2022-10-23T13:52:25.306Z,1.67
2022-10-23T13:54:53.375Z,1.83
2022-10-23T13:57:21.407Z,1.85
2022-10-23T13:59:49.427Z,2.42
2022-10-23T14:02:21.006Z,3.13
2022-10-23T14:04:51.387Z,4.72
2022-10-23T14:07:19.606Z,3.00
2022-10-23T14:09:50.457Z,3.00
2022-10-23T14:12:18.846Z,4.85
2022-10-23T14:14:51.181Z,1.35
2022-10-23T14:17:19.349Z,1.63
2022-10-23T14:19:47.471Z,3.72
2022-10-23T14:22:17.995Z,1.27
2022-10-23T14:24:46.047Z,2.35
2022-10-23T14:27:14.126Z,1.60
2022-10-23T14:29:42.582Z,1.13
2022-10-23T14:32:10.965Z,2.30
2022-10-23T14:34:41.235Z,2.08
2022-10-23T14:37:09.484Z,2.15
2022-10-23T14:39:38.975Z,3.08
2022-10-23T14:42:07.121Z,2.92
2022-10-23T14:44:35.262Z,3.63
2022-10-23T14:47:03.346Z,1.90
2022-10-23T14:49:31.810Z,7.03
2022-10-23T14:51:59.910Z,2.20
2022-10-23T14:54:29.329Z,2.30
2022-10-23T14:56:58.752Z,2.20
2022-10-23T14:59:26.854Z,2.90
2022-10-23T15:01:54.901Z,2.80
2022-10-23T15:04:23.202Z,4.25
2022-10-23T15:06:51.483Z,4.47
2022-10-23T15:09:20.274Z,3.40
2022-10-23T15:11:48.795Z,3.17
2022-10-23T15:14:18.260Z,2.78
2022-10-23T15:16:46.325Z,2.88
2022-10-23T15:19:18.693Z,3.15
2022-10-23T15:21:47.851Z,3.90
2022-10-23T15:24:16.068Z,1.67
2022-10-23T15:26:44.497Z,3.78
2022-10-23T15:29:14.415Z,2.15
2022-10-23T15:31:49.877Z,2.05
2022-10-23T15:34:20.620Z,4.63
2022-10-23T15:36:49.627Z,3.97
2022-10-23T15:39:20.557Z,2.80
2022-10-23T15:41:51.256Z,4.37
2022-10-23T15:44:21.285Z,1.40
2022-10-23T15:46:51.607Z,3.63
2022-10-23T15:49:20.054Z,2.65
2022-10-23T15:51:48.184Z,6.43
2022-10-23T15:54:19.042Z,4.13
2022-10-23T15:56:49.037Z,1.27
2022-10-23T15:59:17.860Z,3.20
2022-10-23T16:01:45.983Z,4.80
2022-10-23T16:04:16.078Z,3.78
2022-10-23T16:06:44.701Z,2.45
2022-10-23T16:09:13.084Z,1.95
2022-10-23T16:11:43.259Z,4.22
2022-10-23T16:14:14.279Z,7.55
2022-10-23T16:16:42.403Z,3.30
2022-10-23T16:19:11.799Z,2.28
2022-10-23T16:21:42.297Z,3.85
2022-10-23T16:24:11.018Z,1.58
2022-10-23T16:26:39.304Z,4.05
2022-10-23T16:29:09.471Z,3.50
2022-10-23T16:31:37.857Z,2.45
2022-10-23T16:34:06.787Z,3.05
2022-10-23T16:36:35.208Z,4.00
2022-10-23T16:39:05.875Z,6.95
2022-10-23T16:41:33.936Z,4.45
2022-10-23T16:44:02.145Z,6.05
2022-10-23T16:46:30.340Z,2.58
2022-10-23T16:48:58.551Z,2.20
2022-10-23T16:51:27.867Z,2.03
2022-10-23T16:53:56.814Z,3.40
2022-10-23T16:56:29.618Z,2.35
2022-10-23T17:01:33.118Z,5.20
2022-10-23T17:04:01.782Z,3.15
2022-10-23T17:06:32.040Z,2.38
2022-10-23T17:09:01.478Z,3.83
2022-10-23T17:11:32.186Z,2.55
2022-10-23T17:14:02.159Z,4.78
2022-10-23T17:16:31.684Z,2.90
2022-10-23T17:19:00.065Z,9.20
2022-10-23T17:21:31.963Z,15.50
2022-10-23T17:26:28.600Z,26.48
2022-10-23T17:28:58.384Z,30.52
2022-10-23T17:31:28.702Z,16.50
2022-10-23T17:33:59.037Z,5.45
2022-10-23T17:36:28.174Z,6.82
2022-10-23T17:38:56.457Z,4.25
2022-10-23T17:41:26.274Z,4.65
2022-10-23T17:43:59.081Z,7.72
2022-10-23T17:46:29.188Z,3.33
2022-10-23T17:48:59.171Z,5.75
2022-10-23T17:51:28.572Z,6.85
2022-10-23T17:53:58.355Z,3.53
2022-10-23T17:56:29.279Z,3.15
2022-10-23T17:59:01.851Z,2.37
2022-10-23T18:01:31.004Z,3.80
2022-10-23T18:04:02.052Z,2.80
2022-10-23T18:06:32.974Z,3.43
2022-10-23T18:09:02.512Z,7.10
2022-10-23T18:11:33.619Z,7.22
2022-10-23T18:14:03.921Z,9.77
2022-10-23T18:16:32.129Z,7.75
2022-10-23T18:19:01.897Z,5.82
2022-10-23T18:21:30.439Z,5.20
2022-10-23T18:24:00.083Z,4.38
2022-10-23T18:26:30.983Z,3.55
2022-10-23T18:29:00.600Z,4.05
2022-10-23T18:31:30.867Z,6.28
2022-10-23T18:34:01.422Z,6.05
2022-10-23T18:36:32.123Z,9.73
2022-10-23T18:39:00.256Z,7.40
2022-10-23T18:41:29.071Z,6.57
2022-10-23T18:43:57.348Z,8.25
2022-10-23T18:46:25.400Z,8.18
2022-10-23T18:48:54.864Z,9.30
2022-10-23T18:51:25.044Z,8.80
2022-10-23T18:53:53.721Z,5.53
2022-10-23T18:56:26.678Z,5.38
2022-10-23T18:58:56.280Z,6.78
2022-10-23T19:01:26.957Z,4.07
2022-10-23T19:04:00.597Z,5.43
2022-10-23T19:06:29.567Z,8.35
2022-10-23T19:08:57.735Z,4.85
2022-10-23T19:11:27.992Z,5.07
2022-10-23T19:13:56.661Z,6.60
2022-10-23T19:16:28.135Z,7.57
2022-10-23T19:19:01.036Z,4.15
2022-10-23T19:21:33.105Z,3.97
2022-10-23T19:24:03.007Z,3.70
2022-10-23T19:26:33.445Z,5.40
2022-10-23T19:29:01.741Z,3.17
2022-10-23T19:31:29.881Z,5.53
2022-10-23T19:34:00.324Z,4.60
2022-10-23T19:43:51.438Z,5.50
2022-10-23T19:46:19.914Z,5.35
2022-10-23T19:48:48.091Z,5.70
2022-10-23T19:51:17.679Z,4.20
2022-10-23T19:53:45.915Z,6.80
2022-10-23T19:56:14.486Z,5.35
2022-10-23T19:58:42.749Z,6.18
2022-10-23T20:01:12.896Z,10.57
2022-10-23T20:03:42.369Z,5.35
2022-10-23T20:06:12.474Z,5.60
2022-10-23T20:08:42.537Z,6.40
2022-10-23T20:11:11.367Z,6.05
2022-10-23T20:13:39.530Z,6.43
2022-10-23T20:16:08.262Z,6.90
2022-10-23T20:18:36.582Z,5.20
2022-10-23T20:21:04.933Z,8.40
2022-10-23T20:23:33.106Z,16.98
2022-10-23T20:26:11.769Z,9.30
2022-10-23T20:28:40.415Z,6.72
2022-10-23T20:31:10.070Z,7.38
2022-10-23T20:33:38.382Z,6.95
2022-10-23T20:36:09.085Z,7.63
2022-10-23T20:38:37.715Z,8.27
2022-10-23T20:41:05.977Z,8.45
2022-10-23T20:43:35.527Z,5.50
2022-10-23T20:46:07.903Z,8.15
2022-10-23T20:48:36.897Z,8.10
2022-10-23T20:51:05.691Z,9.43
2022-10-23T20:53:35.030Z,10.35
2022-10-23T20:56:06.284Z,6.82
2022-10-23T20:58:36.476Z,7.00
2022-10-23T21:01:05.827Z,10.32
2022-10-23T21:03:34.411Z,10.48
2022-10-23T21:06:06.644Z,6.82
2022-10-23T21:08:34.962Z,9.57
2022-10-23T21:11:03.206Z,10.07
2022-10-23T21:13:32.259Z,8.75
2022-10-23T21:16:01.822Z,7.75
2022-10-23T21:18:45.052Z,7.28
2022-10-23T21:21:14.085Z,15.02
2022-10-23T21:23:42.669Z,8.95
2022-10-23T21:26:10.847Z,9.27
2022-10-23T21:28:41.734Z,6.20
2022-10-23T21:31:17.202Z,9.32
2022-10-23T21:33:46.853Z,6.38
2022-10-23T21:36:17.453Z,9.80
2022-10-23T21:38:45.782Z,9.25
2022-10-23T21:41:16.550Z,9.77
2022-10-23T21:43:45.459Z,10.93
2022-10-23T21:46:15.156Z,8.25
2022-10-23T21:48:45.706Z,11.70
2022-10-23T21:51:17.216Z,9.52
2022-10-23T21:53:45.441Z,7.05
2022-10-23T21:56:24.967Z,7.30
2022-10-23T21:58:53.187Z,12.10
2022-10-23T22:01:21.981Z,7.97
2022-10-23T22:03:51.884Z,9.45
2022-10-23T22:06:22.541Z,11.88
2022-10-23T22:08:52.268Z,9.82
2022-10-23T22:11:20.653Z,10.10
2022-10-23T22:13:48.986Z,9.95
2022-10-23T22:16:18.195Z,13.65
2022-10-23T22:18:46.411Z,8.70
2022-10-23T22:21:18.757Z,11.00
2022-10-23T22:23:49.281Z,11.40
2022-10-23T22:26:23.191Z,12.68
2022-10-23T22:28:52.292Z,9.27
2022-10-23T22:31:22.357Z,8.13
2022-10-23T22:33:50.880Z,11.10
2022-10-23T22:36:21.232Z,11.18
2022-10-23T22:38:49.727Z,10.05
2022-10-23T22:41:18.237Z,9.25
2022-10-23T22:43:46.441Z,11.77
2022-10-23T22:46:19.028Z,6.78
2022-10-23T22:48:47.231Z,9.95
2022-10-23T22:51:17.375Z,9.13
2022-10-23T22:53:47.855Z,11.05
2022-10-23T22:56:18.823Z,7.68
2022-10-23T22:58:47.477Z,11.30
2022-10-23T23:01:18.484Z,7.43
2022-10-23T23:03:47.166Z,8.90
2022-10-23T23:06:15.898Z,9.18
2022-10-23T23:08:44.535Z,7.65
2022-10-23T23:11:15.903Z,12.27
2022-10-23T23:13:44.876Z,11.82
2022-10-23T23:16:20.592Z,8.80
2022-10-23T23:18:48.862Z,10.88
2022-10-23T23:21:18.003Z,10.27
2022-10-23T23:23:46.420Z,12.13
2022-10-23T23:26:17.098Z,10.52
2022-10-23T23:28:45.438Z,12.85
2022-10-23T23:31:17.644Z,13.23
2022-10-23T23:33:46.150Z,9.65
2022-10-23T23:36:17.266Z,11.43
2022-10-23T23:38:45.464Z,12.93
2022-10-23T23:41:16.272Z,11.90
2022-10-23T23:43:44.801Z,9.52
2022-10-23T23:46:13.710Z,9.70
2022-10-23T23:48:47.305Z,13.77
2022-10-23T23:51:15.656Z,10.23
2022-10-23T23:53:44.113Z,12.75
2022-10-23T23:56:12.362Z,10.32
2022-10-23T23:58:42.076Z,10.02
